Yankton, South Dakota
Current Conditions -  °F | °C
As of 12:15 AM on Wednesday 26 Nov 2014 (Local Time) from KYKN Reporting Station
Overcast Overcast  
Wind Chill: 29°   Ceiling: 1200
Heat Index: 34°   Visibility: 10mi
Dew Point: 32°   Wind: 6mph
Humidity: 93%   Direction: 300°WNW
Pressure: 29.83"   Gusts: NA
Location:  42.87°N, 97.4°W
Report Text: KYKN 260615Z AUTO 30005KT 10SM BKN012 BKN024 OVC060 01/00 A2983 RMK AO1
Loading
Personal Weather Stations






























Interactive Weather Map New forecast layout! Learn more

10-Day Weather Forecast

Advertisements
Track Severe Weather on mobile